Time;durP1;ratioP1;P1;durP2;ratioP2;P2;SDS_P1;SDS_P2;PMS_P1;PMS_P2;Temp;Humidity;BMP_temperature;BMP_pressure;BME280_temperature;BME280_humidity;BME280_pressure;Samples;Min_cycle;Max_cycle;Signal;HPM_P1;HPM_P2
2023/08/21 00:02:13;;;;;;;3.53;3.10;;;;;;;;;;8267605;28;20034;-59
2023/08/21 00:06:14;;;;;;;3.70;3.20;;;;;;;;;;8273112;28;20033;-59
2023/08/21 00:10:15;;;;;;;5.28;3.40;;;;;;;;;;8269228;28;20481;-60
2023/08/21 00:14:15;;;;;;;5.40;3.20;;;;;;;;;;8268534;28;20027;-59
2023/08/21 00:18:15;;;;;;;4.05;3.20;;;;;;;;;;8270705;28;20132;-59
2023/08/21 00:22:15;;;;;;;4.43;3.03;;;;;;;;;;8273958;28;20025;-59
2023/08/21 00:26:15;;;;;;;4.63;3.15;;;;;;;;;;8271893;28;20034;-59
2023/08/21 00:30:16;;;;;;;8.13;3.38;;;;;;;;;;8272402;28;20037;-59
2023/08/21 00:34:16;;;;;;;5.55;3.10;;;;;;;;;;8269037;28;20037;-59
2023/08/21 00:38:17;;;;;;;4.30;3.03;;;;;;;;;;8270656;28;20113;-59
2023/08/21 00:42:17;;;;;;;3.72;3.20;;;;;;;;;;8271472;28;20014;-59
2023/08/21 00:46:17;;;;;;;4.70;3.55;;;;;;;;;;8271426;28;20151;-59
2023/08/21 00:50:18;;;;;;;3.70;3.22;;;;;;;;;;8267765;28;20051;-59
2023/08/21 00:54:18;;;;;;;5.67;3.50;;;;;;;;;;8271801;28;20095;-59
2023/08/21 00:58:20;;;;;;;4.68;3.70;;;;;;;;;;8269506;28;20048;-60
2023/08/21 01:02:20;;;;;;;5.43;3.47;;;;;;;;;;8268429;28;20186;-60
2023/08/21 01:06:20;;;;;;;4.35;3.50;;;;;;;;;;8265796;28;20026;-59
2023/08/21 01:10:26;;;;;;;6.63;3.65;;;;;;;;;;8269259;28;20033;-59
2023/08/21 01:14:31;;;;;;;5.93;3.80;;;;;;;;;;8271026;28;20398;-59
2023/08/21 01:18:33;;;;;;;3.85;3.42;;;;;;;;;;8265240;28;20128;-59
2023/08/21 01:22:37;;;;;;;4.30;3.70;;;;;;;;;;8268002;28;20522;-59
2023/08/21 01:26:37;;;;;;;4.15;3.47;;;;;;;;;;8267883;28;20411;-59
2023/08/21 01:30:37;;;;;;;6.85;3.50;;;;;;;;;;8267055;28;20152;-60
2023/08/21 01:34:38;;;;;;;7.45;4.00;;;;;;;;;;8267891;28;20536;-59
2023/08/21 01:38:39;;;;;;;5.75;3.47;;;;;;;;;;8269662;28;20441;-59
2023/08/21 01:42:39;;;;;;;5.87;3.47;;;;;;;;;;8269155;28;21079;-59
2023/08/21 01:46:39;;;;;;;3.90;3.50;;;;;;;;;;8271910;28;20033;-59
2023/08/21 01:50:39;;;;;;;5.20;3.20;;;;;;;;;;8276117;28;20068;-59
2023/08/21 01:54:40;;;;;;;4.10;3.20;;;;;;;;;;8274889;28;21027;-59
2023/08/21 01:58:40;;;;;;;4.95;3.63;;;;;;;;;;8273580;28;20870;-60
2023/08/21 02:02:40;;;;;;;5.53;3.88;;;;;;;;;;8272032;28;20412;-59
2023/08/21 02:06:41;;;;;;;4.93;3.63;;;;;;;;;;8273864;28;20144;-59
2023/08/21 02:10:50;;;;;;;3.93;3.53;;;;;;;;;;8273211;28;20539;-60
2023/08/21 02:14:51;;;;;;;5.60;3.63;;;;;;;;;;8274981;28;20676;-59
2023/08/21 02:18:51;;;;;;;5.50;3.70;;;;;;;;;;8273057;28;20060;-59
2023/08/21 02:22:51;;;;;;;12.48;3.53;;;;;;;;;;8274454;28;20044;-59
2023/08/21 02:26:51;;;;;;;4.43;3.40;;;;;;;;;;8269891;28;20025;-59
2023/08/21 02:30:51;;;;;;;4.72;3.65;;;;;;;;;;8272620;28;20160;-61
2023/08/21 02:34:51;;;;;;;5.03;3.75;;;;;;;;;;8273250;28;20033;-59
2023/08/21 02:38:52;;;;;;;6.47;3.72;;;;;;;;;;8274660;28;20052;-59
2023/08/21 02:42:52;;;;;;;5.95;4.30;;;;;;;;;;8272711;28;20112;-59
2023/08/21 02:46:52;;;;;;;7.50;3.85;;;;;;;;;;8271315;28;20052;-60
2023/08/21 02:50:52;;;;;;;4.30;3.90;;;;;;;;;;8277036;28;20739;-59
2023/08/21 02:54:52;;;;;;;4.68;4.28;;;;;;;;;;8275610;28;20674;-59
2023/08/21 02:58:53;;;;;;;6.43;4.13;;;;;;;;;;8272296;28;20067;-60
2023/08/21 03:02:53;;;;;;;6.10;4.60;;;;;;;;;;8274008;28;20163;-59
2023/08/21 03:06:53;;;;;;;4.70;4.20;;;;;;;;;;8272142;28;20025;-60
2023/08/21 03:10:53;;;;;;;5.45;3.97;;;;;;;;;;8274454;28;20033;-60
2023/08/21 03:14:54;;;;;;;5.05;4.35;;;;;;;;;;8274183;28;20046;-60
2023/08/21 03:18:59;;;;;;;6.13;4.57;;;;;;;;;;8272634;28;20776;-60
2023/08/21 03:22:59;;;;;;;5.93;4.28;;;;;;;;;;8271515;28;20037;-59
2023/08/21 03:26:59;;;;;;;8.63;4.50;;;;;;;;;;8271354;28;20030;-59
2023/08/21 03:31:00;;;;;;;7.07;4.32;;;;;;;;;;8271767;28;20494;-59
2023/08/21 03:35:00;;;;;;;4.55;4.15;;;;;;;;;;8267681;28;20026;-59
2023/08/21 03:39:01;;;;;;;5.60;4.47;;;;;;;;;;8273467;28;20026;-59
2023/08/21 03:43:01;;;;;;;5.50;4.55;;;;;;;;;;8269373;28;20099;-60
2023/08/21 03:47:01;;;;;;;5.80;4.43;;;;;;;;;;8270975;28;20045;-59
2023/08/21 03:51:01;;;;;;;5.68;5.07;;;;;;;;;;8271697;28;20083;-59
2023/08/21 03:55:01;;;;;;;5.32;4.85;;;;;;;;;;8271880;28;20034;-59
2023/08/21 03:59:02;;;;;;;5.68;4.90;;;;;;;;;;8272296;28;20037;-59
2023/08/21 04:03:02;;;;;;;8.00;4.80;;;;;;;;;;8268423;28;20034;-59
2023/08/21 04:07:02;;;;;;;6.13;5.33;;;;;;;;;;8273270;28;20044;-60
2023/08/21 04:11:02;;;;;;;6.00;5.20;;;;;;;;;;8271426;28;20288;-59
2023/08/21 04:15:03;;;;;;;8.50;5.50;;;;;;;;;;8270709;28;20029;-61
2023/08/21 04:19:03;;;;;;;6.30;5.28;;;;;;;;;;8271425;28;20025;-59
2023/08/21 04:23:03;;;;;;;6.03;4.90;;;;;;;;;;8269851;28;21030;-59
2023/08/21 04:27:04;;;;;;;7.20;5.20;;;;;;;;;;8270515;28;20323;-60
2023/08/21 04:31:05;;;;;;;8.73;5.40;;;;;;;;;;8269602;28;20164;-60
2023/08/21 04:35:05;;;;;;;7.70;5.28;;;;;;;;;;8271334;28;20876;-59
2023/08/21 04:39:05;;;;;;;8.13;4.90;;;;;;;;;;8269502;28;20034;-59
2023/08/21 04:43:06;;;;;;;6.65;5.30;;;;;;;;;;8269306;28;20029;-59
2023/08/21 04:47:21;;;;;;;6.78;4.47;;;;;;;;;;8269000;28;20033;-59
2023/08/21 04:51:21;;;;;;;6.68;4.68;;;;;;;;;;8270613;28;20117;-59
2023/08/21 04:55:23;;;;;;;5.90;4.50;;;;;;;;;;8270605;28;20049;-59
2023/08/21 04:59:24;;;;;;;5.75;4.38;;;;;;;;;;8272649;28;20040;-59
2023/08/21 05:03:26;;;;;;;5.18;4.20;;;;;;;;;;8265440;28;20506;-59
2023/08/21 05:07:27;;;;;;;5.95;4.13;;;;;;;;;;8266561;28;20092;-59
2023/08/21 05:11:27;;;;;;;6.25;4.65;;;;;;;;;;8269942;28;20088;-60
2023/08/21 05:15:27;;;;;;;6.18;4.55;;;;;;;;;;8267375;28;20053;-59
2023/08/21 05:19:28;;;;;;;7.85;4.40;;;;;;;;;;8267354;28;20036;-59
2023/08/21 05:23:28;;;;;;;4.80;4.07;;;;;;;;;;8270745;28;20528;-59
2023/08/21 05:27:28;;;;;;;5.43;4.40;;;;;;;;;;8269142;28;20081;-59
2023/08/21 05:31:28;;;;;;;5.53;4.70;;;;;;;;;;8267546;28;20046;-60
2023/08/21 05:35:29;;;;;;;6.80;4.83;;;;;;;;;;8265807;28;20030;-59
2023/08/21 05:39:29;;;;;;;5.00;4.60;;;;;;;;;;8269285;28;20287;-59
2023/08/21 05:43:30;;;;;;;6.07;4.78;;;;;;;;;;8268664;28;20498;-59
2023/08/21 05:47:30;;;;;;;5.18;4.68;;;;;;;;;;8265278;28;20038;-59
2023/08/21 05:51:30;;;;;;;7.93;4.47;;;;;;;;;;8266256;28;20862;-59
2023/08/21 05:55:31;;;;;;;6.03;4.75;;;;;;;;;;8268912;28;20030;-60
2023/08/21 05:59:32;;;;;;;4.80;4.40;;;;;;;;;;8267128;28;20167;-60
2023/08/21 06:03:32;;;;;;;5.60;4.20;;;;;;;;;;8265982;28;20375;-60
2023/08/21 06:07:32;;;;;;;5.13;4.63;;;;;;;;;;8263899;28;20045;-60
2023/08/21 06:11:32;;;;;;;5.10;4.60;;;;;;;;;;8254863;28;20523;-60
2023/08/21 06:15:32;;;;;;;5.85;5.10;;;;;;;;;;8266063;28;20469;-61
2023/08/21 06:19:33;;;;;;;9.00;4.60;;;;;;;;;;8259854;28;20025;-60
2023/08/21 06:23:33;;;;;;;4.60;4.15;;;;;;;;;;8266877;28;20140;-60
2023/08/21 06:27:33;;;;;;;4.47;3.87;;;;;;;;;;8266266;28;20022;-62
2023/08/21 06:31:34;;;;;;;5.43;3.80;;;;;;;;;;8270638;28;20127;-60
2023/08/21 06:35:37;;;;;;;3.90;3.50;;;;;;;;;;8273818;28;20017;-62
2023/08/21 06:39:37;;;;;;;4.97;3.60;;;;;;;;;;8279262;28;20092;-60
2023/08/21 06:43:38;;;;;;;4.00;3.60;;;;;;;;;;8276833;28;20033;-62
2023/08/21 06:47:40;;;;;;;4.33;3.50;;;;;;;;;;8274806;28;20053;-61
2023/08/21 06:51:40;;;;;;;5.63;3.63;;;;;;;;;;8276492;28;20026;-61
2023/08/21 06:55:40;;;;;;;4.40;3.20;;;;;;;;;;8266363;28;20040;-61
2023/08/21 06:59:40;;;;;;;5.82;3.90;;;;;;;;;;8277511;28;20418;-61
2023/08/21 07:03:40;;;;;;;5.45;3.50;;;;;;;;;;8271319;28;20034;-61
2023/08/21 07:07:41;;;;;;;4.47;3.20;;;;;;;;;;8274631;28;20207;-61
2023/08/21 07:11:41;;;;;;;6.43;3.38;;;;;;;;;;8264822;28;20346;-61
2023/08/21 07:15:41;;;;;;;3.92;3.63;;;;;;;;;;8269351;28;20056;-61
2023/08/21 07:19:41;;;;;;;5.28;3.20;;;;;;;;;;8274160;28;20116;-61
2023/08/21 07:23:41;;;;;;;7.53;3.70;;;;;;;;;;8276608;28;20071;-62
2023/08/21 07:27:42;;;;;;;4.72;3.50;;;;;;;;;;8276275;28;20092;-61
2023/08/21 07:31:42;;;;;;;6.93;3.88;;;;;;;;;;8271899;28;20037;-61
2023/08/21 07:35:44;;;;;;;5.20;3.50;;;;;;;;;;8276521;28;20148;-61
2023/08/21 07:39:44;;;;;;;4.10;3.47;;;;;;;;;;8271165;28;20030;-61
2023/08/21 07:43:44;;;;;;;3.65;3.25;;;;;;;;;;8272111;28;20047;-61
2023/08/21 07:47:44;;;;;;;5.67;3.40;;;;;;;;;;8270749;28;20041;-61
2023/08/21 07:51:45;;;;;;;3.58;3.20;;;;;;;;;;8266650;28;20171;-61
2023/08/21 07:55:45;;;;;;;4.40;3.80;;;;;;;;;;8268520;28;20030;-62
2023/08/21 07:59:46;;;;;;;3.33;3.03;;;;;;;;;;8270189;28;20021;-61
2023/08/21 08:03:46;;;;;;;4.63;3.40;;;;;;;;;;8269716;28;20037;-61
2023/08/21 08:07:46;;;;;;;5.55;3.42;;;;;;;;;;8269332;28;20080;-61
2023/08/21 08:11:46;;;;;;;6.00;3.13;;;;;;;;;;8266086;28;20025;-61
2023/08/21 08:15:46;;;;;;;4.88;3.33;;;;;;;;;;8268063;28;20116;-61
2023/08/21 08:19:47;;;;;;;6.07;3.10;;;;;;;;;;8270830;28;20095;-61
2023/08/21 08:23:47;;;;;;;4.07;3.67;;;;;;;;;;8259341;28;20473;-61
2023/08/21 08:27:47;;;;;;;5.30;3.53;;;;;;;;;;8272060;28;20413;-61
2023/08/21 08:31:47;;;;;;;6.83;3.40;;;;;;;;;;8265670;28;20107;-61
2023/08/21 08:35:48;;;;;;;5.50;3.30;;;;;;;;;;8266352;28;20029;-61
2023/08/21 08:39:49;;;;;;;5.47;3.90;;;;;;;;;;8268628;28;20060;-61
2023/08/21 08:43:49;;;;;;;6.37;3.40;;;;;;;;;;8266661;28;20112;-61
2023/08/21 08:47:50;;;;;;;3.63;3.30;;;;;;;;;;8267561;28;20156;-62
2023/08/21 08:51:51;;;;;;;4.30;3.38;;;;;;;;;;8266476;28;20113;-61
2023/08/21 08:55:51;;;;;;;4.07;3.20;;;;;;;;;;8265584;28;20041;-61
2023/08/21 08:59:52;;;;;;;3.40;3.10;;;;;;;;;;8268884;28;20950;-61
2023/08/21 09:03:52;;;;;;;;;;;;;;;;;;8267627;28;20117;-62
2023/08/21 09:08:22;;;;;;;3.60;3.10;;;;;;;;;;8269437;28;19952;-61
2023/08/21 09:12:23;;;;;;;5.35;3.08;;;;;;;;;;8265849;28;20124;-63
2023/08/21 09:16:24;;;;;;;6.40;3.00;;;;;;;;;;8262323;28;20180;-62
2023/08/21 09:20:24;;;;;;;3.53;2.70;;;;;;;;;;8254507;28;20025;-62
2023/08/21 09:24:24;;;;;;;4.32;3.17;;;;;;;;;;8255491;28;20356;-62
2023/08/21 09:28:25;;;;;;;4.15;2.75;;;;;;;;;;8264686;28;20034;-62
2023/08/21 09:32:25;;;;;;;4.40;3.10;;;;;;;;;;8265105;28;20153;-62
2023/08/21 09:36:25;;;;;;;3.50;2.83;;;;;;;;;;8263957;28;20022;-62
2023/08/21 09:40:25;;;;;;;6.40;2.73;;;;;;;;;;8264723;28;20096;-62
2023/08/21 09:44:26;;;;;;;3.20;2.70;;;;;;;;;;8260561;28;20032;-62
2023/08/21 09:48:29;;;;;;;3.85;2.65;;;;;;;;;;8258911;28;20072;-61
2023/08/21 09:52:30;;;;;;;2.88;2.28;;;;;;;;;;8258344;28;20507;-61
2023/08/21 09:56:31;;;;;;;4.97;2.78;;;;;;;;;;8257295;28;20047;-62
2023/08/21 10:00:32;;;;;;;3.58;2.47;;;;;;;;;;8257468;28;20474;-62
2023/08/21 10:04:34;;;;;;;7.68;2.70;;;;;;;;;;8253413;28;20489;-62
2023/08/21 10:08:41;;;;;;;3.63;2.55;;;;;;;;;;8265949;28;20435;-62
2023/08/21 10:12:41;;;;;;;5.18;2.60;;;;;;;;;;8263037;28;20516;-62
2023/08/21 10:16:41;;;;;;;4.17;2.50;;;;;;;;;;8260248;28;20042;-61
2023/08/21 10:20:41;;;;;;;3.30;2.30;;;;;;;;;;8261010;28;20044;-62
2023/08/21 10:24:42;;;;;;;4.68;2.60;;;;;;;;;;8262902;28;20022;-62
2023/08/21 10:28:55;;;;;;;3.17;2.17;;;;;;;;;;8264504;28;20474;-62
2023/08/21 10:32:56;;;;;;;3.60;2.20;;;;;;;;;;8263197;28;20072;-62
2023/08/21 10:36:56;;;;;;;;;;;;;;;;;;8265703;28;20390;-62
2023/08/21 10:41:04;;;;;;;3.08;2.20;;;;;;;;;;8263963;28;19920;-62
2023/08/21 10:45:13;;;;;;;4.50;2.13;;;;;;;;;;8269256;28;20136;-62
2023/08/21 10:49:13;;;;;;;2.90;2.30;;;;;;;;;;8263942;28;20481;-61
2023/08/21 10:53:13;;;;;;;2.15;1.90;;;;;;;;;;8258414;28;20602;-61
2023/08/21 10:57:14;;;;;;;3.55;2.25;;;;;;;;;;8263671;28;20060;-61
2023/08/21 11:01:15;;;;;;;2.60;2.13;;;;;;;;;;8264630;28;20325;-62
2023/08/21 11:05:16;;;;;;;2.08;1.95;;;;;;;;;;8263536;28;20010;-61
2023/08/21 11:09:16;;;;;;;2.67;2.23;;;;;;;;;;8264113;28;20033;-61
2023/08/21 11:13:16;;;;;;;2.60;2.17;;;;;;;;;;8261764;28;20091;-61
2023/08/21 11:17:18;;;;;;;3.08;1.98;;;;;;;;;;8252778;28;20450;-61
2023/08/21 11:21:18;;;;;;;5.43;2.20;;;;;;;;;;8262221;28;20552;-61
2023/08/21 11:25:18;;;;;;;3.42;2.35;;;;;;;;;;8258959;28;20033;-60
2023/08/21 11:29:19;;;;;;;3.88;2.10;;;;;;;;;;8254967;28;20038;-60
2023/08/21 11:33:19;;;;;;;2.75;1.90;;;;;;;;;;8259408;28;20286;-61
2023/08/21 11:37:20;;;;;;;3.65;2.30;;;;;;;;;;8258957;28;20478;-61
2023/08/21 11:41:20;;;;;;;2.17;1.88;;;;;;;;;;8262823;28;20030;-61
2023/08/21 11:45:21;;;;;;;3.47;1.93;;;;;;;;;;8258893;28;20029;-61
2023/08/21 11:49:23;;;;;;;4.97;2.07;;;;;;;;;;8259851;28;20136;-61
2023/08/21 11:53:23;;;;;;;;;;;;;;;;;;8264667;28;20084;-61
2023/08/21 11:57:23;;;;;;;2.00;1.90;;;;;;;;;;8261441;28;20665;-61
2023/08/21 12:01:24;;;;;;;2.30;2.10;;;;;;;;;;8262038;28;20511;-61
2023/08/21 12:05:24;;;;;;;3.88;1.60;;;;;;;;;;8260567;28;20192;-61
2023/08/21 12:09:24;;;;;;;4.20;1.93;;;;;;;;;;8264502;28;20075;-61
2023/08/21 12:13:24;;;;;;;2.22;1.70;;;;;;;;;;8263058;28;20036;-61
2023/08/21 12:17:25;;;;;;;2.05;1.83;;;;;;;;;;8259720;28;20049;-62
2023/08/21 12:21:25;;;;;;;2.17;1.77;;;;;;;;;;8260364;28;20057;-62
2023/08/21 12:25:25;;;;;;;1.80;1.60;;;;;;;;;;8259509;28;20021;-61
2023/08/21 12:29:26;;;;;;;2.95;1.40;;;;;;;;;;8263218;28;20025;-62
2023/08/21 12:33:26;;;;;;;2.60;1.60;;;;;;;;;;8260508;28;20657;-61
2023/08/21 12:37:27;;;;;;;1.55;1.45;;;;;;;;;;8261672;28;20029;-61
2023/08/21 12:41:27;;;;;;;1.40;1.20;;;;;;;;;;8264931;28;20032;-61
2023/08/21 12:45:27;;;;;;;1.63;1.10;;;;;;;;;;8260117;28;20242;-61
2023/08/21 12:49:27;;;;;;;3.75;1.08;;;;;;;;;;8261687;28;20156;-61
2023/08/21 12:53:27;;;;;;;1.63;1.10;;;;;;;;;;8258962;28;20040;-60
2023/08/21 12:57:27;;;;;;;4.30;1.33;;;;;;;;;;8258590;28;20021;-60
2023/08/21 13:01:28;;;;;;;1.85;1.20;;;;;;;;;;8259962;28;20136;-60
2023/08/21 13:05:28;;;;;;;3.15;1.42;;;;;;;;;;8262183;28;20544;-58
2023/08/21 13:09:28;;;;;;;1.25;1.15;;;;;;;;;;8264744;28;20021;-60
2023/08/21 13:13:29;;;;;;;1.63;1.10;;;;;;;;;;8261764;28;20061;-60
2023/08/21 13:17:29;;;;;;;2.95;1.20;;;;;;;;;;8251786;28;20045;-60
2023/08/21 13:21:29;;;;;;;1.67;1.20;;;;;;;;;;8261741;28;20156;-60
2023/08/21 13:25:30;;;;;;;3.30;1.20;;;;;;;;;;8254410;28;20127;-61
2023/08/21 13:29:30;;;;;;;2.67;1.30;;;;;;;;;;8250557;28;20058;-60
2023/08/21 13:33:31;;;;;;;3.88;1.10;;;;;;;;;;8257346;28;20286;-60
2023/08/21 13:37:31;;;;;;;2.83;1.10;;;;;;;;;;8262101;28;20025;-60
2023/08/21 13:41:31;;;;;;;1.85;1.00;;;;;;;;;;8260568;28;20025;-60
2023/08/21 13:45:31;;;;;;;2.23;1.10;;;;;;;;;;8257801;28;20146;-60
2023/08/21 13:49:32;;;;;;;3.92;1.00;;;;;;;;;;8260024;28;20021;-60
2023/08/21 13:53:32;;;;;;;2.33;1.10;;;;;;;;;;8260870;28;20087;-60
2023/08/21 13:57:35;;;;;;;1.40;1.05;;;;;;;;;;8257745;28;20026;-60
2023/08/21 14:01:35;;;;;;;2.92;1.30;;;;;;;;;;8255250;28;20034;-61
2023/08/21 14:05:36;;;;;;;1.92;1.35;;;;;;;;;;8260096;28;20052;-60
2023/08/21 14:09:36;;;;;;;1.37;1.13;;;;;;;;;;8261916;28;20099;-60
2023/08/21 14:13:36;;;;;;;4.25;1.10;;;;;;;;;;8257761;28;20049;-60
2023/08/21 14:17:36;;;;;;;3.05;1.33;;;;;;;;;;8256922;28;20077;-60
2023/08/21 14:21:36;;;;;;;1.77;1.23;;;;;;;;;;8260559;28;20030;-60
2023/08/21 14:25:37;;;;;;;1.20;1.10;;;;;;;;;;8259562;28;20529;-60
2023/08/21 14:29:37;;;;;;;1.63;1.10;;;;;;;;;;8257702;28;20228;-60
2023/08/21 14:33:37;;;;;;;1.55;1.20;;;;;;;;;;8253334;28;20045;-60
2023/08/21 14:37:38;;;;;;;1.65;1.10;;;;;;;;;;8262040;28;20038;-59
2023/08/21 14:41:40;;;;;;;1.20;1.10;;;;;;;;;;8269224;28;20394;-60
2023/08/21 14:45:41;;;;;;;1.65;1.20;;;;;;;;;;8264143;28;20089;-60
2023/08/21 14:49:41;;;;;;;2.70;1.20;;;;;;;;;;8266907;28;20037;-60
2023/08/21 14:53:41;;;;;;;2.58;1.30;;;;;;;;;;8269563;28;20053;-60
2023/08/21 14:57:41;;;;;;;3.30;1.30;;;;;;;;;;8271057;28;20153;-60
2023/08/21 15:01:42;;;;;;;1.53;1.10;;;;;;;;;;8273800;28;20117;-59
2023/08/21 15:05:42;;;;;;;3.60;1.47;;;;;;;;;;8270890;28;20021;-60
2023/08/21 15:09:42;;;;;;;1.43;1.13;;;;;;;;;;8275151;28;20136;-59
2023/08/21 15:13:42;;;;;;;1.30;1.13;;;;;;;;;;8270292;28;20030;-60
2023/08/21 15:17:43;;;;;;;2.08;1.13;;;;;;;;;;8266039;28;20038;-60
2023/08/21 15:21:43;;;;;;;1.40;1.13;;;;;;;;;;8269072;28;20446;-60
2023/08/21 15:25:43;;;;;;;2.87;1.20;;;;;;;;;;8262678;28;20048;-59
2023/08/21 15:29:43;;;;;;;2.33;1.37;;;;;;;;;;8271270;28;20678;-57
2023/08/21 15:33:44;;;;;;;2.47;1.20;;;;;;;;;;8268715;28;21028;-59
2023/08/21 15:37:45;;;;;;;1.83;1.20;;;;;;;;;;8273338;28;20144;-58
2023/08/21 15:41:45;;;;;;;3.83;1.30;;;;;;;;;;8268611;28;20969;-58
2023/08/21 15:45:45;;;;;;;2.37;1.20;;;;;;;;;;8269891;28;20034;-59
2023/08/21 15:49:46;;;;;;;1.98;1.30;;;;;;;;;;8269515;28;20045;-59
2023/08/21 15:53:46;;;;;;;2.03;1.37;;;;;;;;;;8270559;28;20032;-60
2023/08/21 15:57:46;;;;;;;3.70;1.30;;;;;;;;;;8268932;28;20432;-58
2023/08/21 16:01:47;;;;;;;3.30;1.40;;;;;;;;;;8267684;28;20064;-58
2023/08/21 16:05:47;;;;;;;2.05;1.42;;;;;;;;;;8269274;28;20175;-55
2023/08/21 16:09:47;;;;;;;1.70;1.37;;;;;;;;;;8259640;28;20024;-54
2023/08/21 16:13:48;;;;;;;3.47;1.30;;;;;;;;;;8270587;28;20028;-54
2023/08/21 16:17:48;;;;;;;3.47;1.55;;;;;;;;;;8267511;28;20084;-57
2023/08/21 16:21:49;;;;;;;2.65;1.38;;;;;;;;;;8269297;28;20017;-56
2023/08/21 16:25:49;;;;;;;5.07;1.40;;;;;;;;;;8278321;28;20029;-56
2023/08/21 16:29:50;;;;;;;1.77;1.38;;;;;;;;;;8270601;28;20144;-56
2023/08/21 16:33:50;;;;;;;2.20;1.42;;;;;;;;;;8269027;28;20215;-58
2023/08/21 16:37:50;;;;;;;1.77;1.35;;;;;;;;;;8268408;28;20041;-60
2023/08/21 16:41:50;;;;;;;2.40;1.60;;;;;;;;;;8271545;28;20030;-59
2023/08/21 16:45:51;;;;;;;2.47;1.40;;;;;;;;;;8270607;28;20042;-59
2023/08/21 16:49:51;;;;;;;5.90;1.60;;;;;;;;;;8272290;28;20041;-60
2023/08/21 16:53:51;;;;;;;4.43;1.35;;;;;;;;;;8270218;28;20026;-60
2023/08/21 16:57:51;;;;;;;2.47;1.40;;;;;;;;;;8268610;28;20038;-58
2023/08/21 17:01:51;;;;;;;2.87;1.40;;;;;;;;;;8268084;28;20232;-59
2023/08/21 17:05:52;;;;;;;2.83;1.50;;;;;;;;;;8269802;28;20281;-60
2023/08/21 17:09:52;;;;;;;4.40;1.60;;;;;;;;;;8267748;28;20514;-61
2023/08/21 17:13:52;;;;;;;2.28;1.50;;;;;;;;;;8263684;28;20183;-59
2023/08/21 17:17:53;;;;;;;2.75;1.60;;;;;;;;;;8256238;28;20041;-59
2023/08/21 17:21:53;;;;;;;3.27;1.80;;;;;;;;;;8261851;28;20022;-59
2023/08/21 17:25:54;;;;;;;1.60;1.40;;;;;;;;;;8257895;28;20041;-64
2023/08/21 17:29:54;;;;;;;2.03;1.45;;;;;;;;;;8259131;28;20124;-60
2023/08/21 17:33:54;;;;;;;2.10;1.40;;;;;;;;;;8256202;28;20547;-60
2023/08/21 17:37:54;;;;;;;3.70;1.42;;;;;;;;;;8255200;28;20552;-60
2023/08/21 17:41:55;;;;;;;4.28;1.50;;;;;;;;;;8255209;28;20045;-60
2023/08/21 17:45:57;;;;;;;4.25;1.30;;;;;;;;;;8250281;28;20029;-60
2023/08/21 17:49:57;;;;;;;;;;;;;;;;;;8255361;28;20191;-61
2023/08/21 17:53:57;;;;;;;3.38;1.40;;;;;;;;;;8257140;28;19960;-59
2023/08/21 17:57:59;;;;;;;3.20;1.42;;;;;;;;;;8260502;28;20553;-60
2023/08/21 18:02:00;;;;;;;2.15;1.30;;;;;;;;;;8259674;28;20037;-59
2023/08/21 18:06:00;;;;;;;3.33;1.52;;;;;;;;;;8249048;28;20021;-59
2023/08/21 18:10:01;;;;;;;3.38;1.50;;;;;;;;;;8260199;28;20994;-58
2023/08/21 18:14:02;;;;;;;2.65;1.40;;;;;;;;;;8265013;28;20112;-59
2023/08/21 18:18:03;;;;;;;4.20;1.50;;;;;;;;;;8260620;28;20033;-59
2023/08/21 18:22:04;;;;;;;1.80;1.37;;;;;;;;;;8262694;28;20022;-59
2023/08/21 18:26:04;;;;;;;6.25;1.50;;;;;;;;;;8261803;28;20048;-59
2023/08/21 18:30:05;;;;;;;2.13;1.38;;;;;;;;;;8269778;28;20029;-60
2023/08/21 18:34:05;;;;;;;3.30;1.52;;;;;;;;;;8270957;28;20037;-60
2023/08/21 18:38:06;;;;;;;1.83;1.27;;;;;;;;;;8269458;28;20048;-59
2023/08/21 18:42:06;;;;;;;1.35;1.20;;;;;;;;;;8267681;28;20029;-59
2023/08/21 18:46:06;;;;;;;5.03;1.50;;;;;;;;;;8263555;28;20148;-59
2023/08/21 18:50:07;;;;;;;2.53;1.45;;;;;;;;;;8258450;28;20272;-58
2023/08/21 18:54:07;;;;;;;3.83;1.70;;;;;;;;;;8260051;28;20501;-60
2023/08/21 18:58:07;;;;;;;2.13;1.88;;;;;;;;;;8258194;28;20319;-58
2023/08/21 19:02:07;;;;;;;4.23;2.10;;;;;;;;;;8259057;28;20637;-58
2023/08/21 19:06:08;;;;;;;2.88;2.00;;;;;;;;;;8259550;28;20037;-59
2023/08/21 19:10:08;;;;;;;5.77;2.50;;;;;;;;;;8258032;28;20089;-59
2023/08/21 19:14:08;;;;;;;3.58;2.08;;;;;;;;;;8259037;28;20297;-58
2023/08/21 19:18:09;;;;;;;3.88;2.25;;;;;;;;;;8257316;28;20531;-58
2023/08/21 19:22:09;;;;;;;6.07;2.40;;;;;;;;;;8258796;28;20029;-58
2023/08/21 19:26:09;;;;;;;9.38;3.17;;;;;;;;;;8258474;28;20026;-58
2023/08/21 19:30:10;;;;;;;4.18;2.60;;;;;;;;;;8255404;28;20029;-58
2023/08/21 19:34:10;;;;;;;5.28;3.08;;;;;;;;;;8255239;28;20557;-59
2023/08/21 19:38:11;;;;;;;4.38;2.55;;;;;;;;;;8260465;28;20060;-61
2023/08/21 19:42:11;;;;;;;5.35;3.53;;;;;;;;;;8260470;28;20037;-58
2023/08/21 19:46:12;;;;;;;5.03;3.42;;;;;;;;;;8257591;28;20038;-58
2023/08/21 19:50:12;;;;;;;4.47;3.75;;;;;;;;;;8258230;28;20041;-58
2023/08/21 19:54:12;;;;;;;4.13;3.63;;;;;;;;;;8255908;28;20028;-58
2023/08/21 19:58:13;;;;;;;3.53;3.20;;;;;;;;;;8260303;28;20183;-58
2023/08/21 20:02:13;;;;;;;7.70;3.97;;;;;;;;;;8263270;28;20088;-58
2023/08/21 20:06:14;;;;;;;9.00;3.38;;;;;;;;;;8262308;28;20508;-58
2023/08/21 20:10:15;;;;;;;7.57;4.15;;;;;;;;;;8263133;28;20030;-58
2023/08/21 20:14:16;;;;;;;4.72;4.28;;;;;;;;;;8261845;28;20935;-58
2023/08/21 20:18:17;;;;;;;6.40;3.83;;;;;;;;;;8254910;28;20042;-58
2023/08/21 20:22:17;;;;;;;8.00;3.85;;;;;;;;;;8258666;28;20029;-58
2023/08/21 20:26:18;;;;;;;6.63;3.42;;;;;;;;;;8254349;28;20029;-58
2023/08/21 20:30:18;;;;;;;3.88;3.45;;;;;;;;;;8258357;28;20022;-58
2023/08/21 20:34:18;;;;;;;5.80;3.70;;;;;;;;;;8256078;28;20033;-58
2023/08/21 20:38:19;;;;;;;4.53;3.90;;;;;;;;;;8252072;28;20061;-58
2023/08/21 20:42:19;;;;;;;7.00;4.03;;;;;;;;;;8256773;28;21028;-58
2023/08/21 20:46:20;;;;;;;6.03;4.43;;;;;;;;;;8256323;28;20037;-58
2023/08/21 20:50:20;;;;;;;6.93;4.68;;;;;;;;;;8247963;28;20025;-58
2023/08/21 20:54:20;;;;;;;8.73;4.43;;;;;;;;;;8252545;28;20037;-58
2023/08/21 20:58:20;;;;;;;10.53;4.40;;;;;;;;;;8262537;28;20028;-58
2023/08/21 21:02:22;;;;;;;8.57;4.75;;;;;;;;;;8266318;28;20125;-58
2023/08/21 21:06:23;;;;;;;8.13;4.22;;;;;;;;;;8263788;28;20140;-58
2023/08/21 21:10:23;;;;;;;5.07;4.27;;;;;;;;;;8264710;28;20068;-58
2023/08/21 21:14:23;;;;;;;6.82;4.55;;;;;;;;;;8263036;28;20056;-59
2023/08/21 21:18:23;;;;;;;7.13;4.70;;;;;;;;;;8260131;28;20041;-58
2023/08/21 21:22:25;;;;;;;8.00;4.70;;;;;;;;;;8263577;28;20397;-58
2023/08/21 21:26:25;;;;;;;7.57;5.38;;;;;;;;;;8264416;28;20053;-59
2023/08/21 21:30:25;;;;;;;4.82;4.38;;;;;;;;;;8264650;28;20060;-58
2023/08/21 21:34:25;;;;;;;5.13;4.40;;;;;;;;;;8262643;28;20028;-58
2023/08/21 21:38:26;;;;;;;7.97;4.53;;;;;;;;;;8262595;28;20073;-58
2023/08/21 21:42:27;;;;;;;7.07;4.70;;;;;;;;;;8258182;28;20037;-58
2023/08/21 21:46:27;;;;;;;7.97;4.90;;;;;;;;;;8249107;28;20043;-58
2023/08/21 21:50:28;;;;;;;8.98;5.20;;;;;;;;;;8252198;28;20497;-58
2023/08/21 21:54:28;;;;;;;8.18;4.82;;;;;;;;;;8247979;28;20353;-57
2023/08/21 21:58:28;;;;;;;6.75;4.57;;;;;;;;;;8251711;28;20610;-58
2023/08/21 22:02:28;;;;;;;6.82;4.85;;;;;;;;;;8250616;28;20030;-58
2023/08/21 22:06:29;;;;;;;6.82;4.25;;;;;;;;;;8255895;28;20340;-58
2023/08/21 22:10:29;;;;;;;5.80;4.43;;;;;;;;;;8254974;28;20036;-58
2023/08/21 22:14:30;;;;;;;7.72;4.93;;;;;;;;;;8258778;28;20247;-58
2023/08/21 22:18:30;;;;;;;7.07;4.97;;;;;;;;;;8262368;28;20121;-56
2023/08/21 22:22:31;;;;;;;6.07;4.40;;;;;;;;;;8269295;28;20028;-58
2023/08/21 22:26:31;;;;;;;7.30;4.70;;;;;;;;;;8263385;28;20021;-57
2023/08/21 22:30:31;;;;;;;6.25;4.32;;;;;;;;;;8271756;28;20121;-59
2023/08/21 22:34:32;;;;;;;7.83;4.90;;;;;;;;;;8271196;28;20237;-58
2023/08/21 22:38:32;;;;;;;7.32;5.63;;;;;;;;;;8270143;28;20041;-57
2023/08/21 22:42:32;;;;;;;9.70;5.68;;;;;;;;;;8271470;28;20037;-57
2023/08/21 22:46:32;;;;;;;7.43;4.95;;;;;;;;;;8272196;28;20813;-58
2023/08/21 22:50:35;;;;;;;6.80;5.60;;;;;;;;;;8271323;28;20021;-57
2023/08/21 22:54:35;;;;;;;6.87;5.07;;;;;;;;;;8271241;28;20033;-57
2023/08/21 22:58:37;;;;;;;6.10;4.82;;;;;;;;;;8271431;28;20161;-57
2023/08/21 23:02:37;;;;;;;5.47;4.95;;;;;;;;;;8268674;28;20045;-57
2023/08/21 23:06:37;;;;;;;6.47;4.57;;;;;;;;;;8269153;28;20114;-57
2023/08/21 23:10:42;;;;;;;7.88;5.05;;;;;;;;;;8268186;28;20029;-58
2023/08/21 23:14:42;;;;;;;7.68;5.55;;;;;;;;;;8266680;28;20728;-57
2023/08/21 23:18:44;;;;;;;6.75;5.35;;;;;;;;;;8267318;28;20084;-58
2023/08/21 23:22:44;;;;;;;7.43;5.15;;;;;;;;;;8269562;28;20030;-58
2023/08/21 23:26:45;;;;;;;6.63;5.10;;;;;;;;;;8272578;28;20022;-58
2023/08/21 23:30:45;;;;;;;8.57;5.03;;;;;;;;;;8271176;28;20057;-58
2023/08/21 23:34:45;;;;;;;5.45;4.57;;;;;;;;;;8270089;28;20494;-58
2023/08/21 23:38:46;;;;;;;8.75;5.00;;;;;;;;;;8271830;28;20033;-58
2023/08/21 23:42:46;;;;;;;13.07;5.13;;;;;;;;;;8271897;28;20033;-57
2023/08/21 23:46:47;;;;;;;7.43;5.15;;;;;;;;;;8269329;28;20030;-57
2023/08/21 23:50:47;;;;;;;6.60;4.80;;;;;;;;;;8275758;28;20137;-57
2023/08/21 23:54:47;;;;;;;7.45;5.43;;;;;;;;;;8261030;28;20033;-58
2023/08/21 23:58:47;;;;;;;9.77;5.30;;;;;;;;;;8268911;28;20068;-57
